sensor_id;sensor_type;location;lat;lon;timestamp;P1;durP1;ratioP1;P2;durP2;ratioP2
72117;SDS011;59992;47.490;8.736;2022-07-30T00:00:51;2.80;;;1.80;;
72117;SDS011;59992;47.490;8.736;2022-07-30T00:03:39;2.50;;;1.60;;
72117;SDS011;59992;47.490;8.736;2022-07-30T00:06:28;3.80;;;1.50;;
72117;SDS011;59992;47.490;8.736;2022-07-30T00:09:17;3.50;;;1.60;;
72117;SDS011;59992;47.490;8.736;2022-07-30T00:12:06;3.70;;;1.80;;
72117;SDS011;59992;47.490;8.736;2022-07-30T00:14:56;4.50;;;1.80;;
72117;SDS011;59992;47.490;8.736;2022-07-30T00:17:44;4.60;;;1.90;;
72117;SDS011;59992;47.490;8.736;2022-07-30T00:20:33;4.80;;;1.90;;
72117;SDS011;59992;47.490;8.736;2022-07-30T00:23:21;3.50;;;1.80;;
72117;SDS011;59992;47.490;8.736;2022-07-30T00:26:10;5.70;;;1.90;;
72117;SDS011;59992;47.490;8.736;2022-07-30T00:28:58;2.80;;;1.70;;
72117;SDS011;59992;47.490;8.736;2022-07-30T00:31:47;4.30;;;1.90;;
72117;SDS011;59992;47.490;8.736;2022-07-30T00:34:36;4.30;;;1.70;;
72117;SDS011;59992;47.490;8.736;2022-07-30T00:37:24;4.60;;;1.90;;
72117;SDS011;59992;47.490;8.736;2022-07-30T00:40:13;2.70;;;1.70;;
72117;SDS011;59992;47.490;8.736;2022-07-30T00:43:01;6.00;;;1.80;;
72117;SDS011;59992;47.490;8.736;2022-07-30T00:45:51;3.50;;;1.80;;
72117;SDS011;59992;47.490;8.736;2022-07-30T00:48:39;3.60;;;1.70;;
72117;SDS011;59992;47.490;8.736;2022-07-30T00:51:27;1.90;;;1.70;;
72117;SDS011;59992;47.490;8.736;2022-07-30T00:54:16;1.90;;;1.60;;
72117;SDS011;59992;47.490;8.736;2022-07-30T00:57:04;3.40;;;1.70;;
72117;SDS011;59992;47.490;8.736;2022-07-30T00:59:52;3.70;;;1.90;;
72117;SDS011;59992;47.490;8.736;2022-07-30T01:02:42;7.60;;;1.90;;
72117;SDS011;59992;47.490;8.736;2022-07-30T01:05:31;3.90;;;1.90;;
72117;SDS011;59992;47.490;8.736;2022-07-30T01:08:19;3.40;;;1.60;;
72117;SDS011;59992;47.490;8.736;2022-07-30T01:11:08;2.10;;;1.60;;
72117;SDS011;59992;47.490;8.736;2022-07-30T01:13:58;3.40;;;1.80;;
72117;SDS011;59992;47.490;8.736;2022-07-30T01:16:46;3.30;;;1.80;;
72117;SDS011;59992;47.490;8.736;2022-07-30T01:19:35;3.70;;;1.70;;
72117;SDS011;59992;47.490;8.736;2022-07-30T01:22:44;3.60;;;1.80;;
72117;SDS011;59992;47.490;8.736;2022-07-30T01:25:42;4.10;;;1.80;;
72117;SDS011;59992;47.490;8.736;2022-07-30T01:28:35;3.20;;;2.00;;
72117;SDS011;59992;47.490;8.736;2022-07-30T01:31:27;4.00;;;1.90;;
72117;SDS011;59992;47.490;8.736;2022-07-30T01:34:16;6.10;;;1.80;;
72117;SDS011;59992;47.490;8.736;2022-07-30T01:37:05;3.00;;;1.90;;
72117;SDS011;59992;47.490;8.736;2022-07-30T01:39:56;4.80;;;1.80;;
72117;SDS011;59992;47.490;8.736;2022-07-30T01:42:47;2.20;;;1.80;;
72117;SDS011;59992;47.490;8.736;2022-07-30T01:45:40;4.30;;;1.70;;
72117;SDS011;59992;47.490;8.736;2022-07-30T01:48:30;4.10;;;1.70;;
72117;SDS011;59992;47.490;8.736;2022-07-30T01:51:20;3.10;;;2.20;;
72117;SDS011;59992;47.490;8.736;2022-07-30T01:54:09;3.80;;;2.00;;
72117;SDS011;59992;47.490;8.736;2022-07-30T01:57:01;3.70;;;1.90;;
72117;SDS011;59992;47.490;8.736;2022-07-30T01:59:51;3.30;;;2.00;;
72117;SDS011;59992;47.490;8.736;2022-07-30T02:02:45;4.40;;;2.00;;
72117;SDS011;59992;47.490;8.736;2022-07-30T02:05:34;3.60;;;1.80;;
72117;SDS011;59992;47.490;8.736;2022-07-30T02:08:27;3.10;;;1.90;;
72117;SDS011;59992;47.490;8.736;2022-07-30T02:11:25;2.60;;;2.00;;
72117;SDS011;59992;47.490;8.736;2022-07-30T02:14:29;2.60;;;1.70;;
72117;SDS011;59992;47.490;8.736;2022-07-30T02:17:29;5.40;;;1.80;;
72117;SDS011;59992;47.490;8.736;2022-07-30T02:20:23;3.80;;;2.00;;
72117;SDS011;59992;47.490;8.736;2022-07-30T02:23:15;3.50;;;2.00;;
72117;SDS011;59992;47.490;8.736;2022-07-30T02:26:06;3.30;;;2.10;;
72117;SDS011;59992;47.490;8.736;2022-07-30T02:28:56;2.90;;;2.00;;
72117;SDS011;59992;47.490;8.736;2022-07-30T02:31:48;3.90;;;2.10;;
72117;SDS011;59992;47.490;8.736;2022-07-30T02:34:39;3.10;;;1.90;;
72117;SDS011;59992;47.490;8.736;2022-07-30T02:37:29;4.20;;;2.10;;
72117;SDS011;59992;47.490;8.736;2022-07-30T02:40:20;3.40;;;2.20;;
72117;SDS011;59992;47.490;8.736;2022-07-30T02:43:09;6.80;;;2.10;;
72117;SDS011;59992;47.490;8.736;2022-07-30T02:46:01;4.80;;;2.20;;
72117;SDS011;59992;47.490;8.736;2022-07-30T02:48:50;3.30;;;2.30;;
72117;SDS011;59992;47.490;8.736;2022-07-30T02:51:41;2.60;;;1.90;;
72117;SDS011;59992;47.490;8.736;2022-07-30T02:54:33;2.90;;;2.20;;
72117;SDS011;59992;47.490;8.736;2022-07-30T02:57:24;2.90;;;1.90;;
72117;SDS011;59992;47.490;8.736;2022-07-30T03:00:15;3.00;;;2.20;;
72117;SDS011;59992;47.490;8.736;2022-07-30T03:03:04;3.30;;;2.10;;
72117;SDS011;59992;47.490;8.736;2022-07-30T03:05:53;3.90;;;1.90;;
72117;SDS011;59992;47.490;8.736;2022-07-30T03:08:43;5.20;;;2.30;;
72117;SDS011;59992;47.490;8.736;2022-07-30T03:11:32;6.30;;;2.20;;
72117;SDS011;59992;47.490;8.736;2022-07-30T03:14:22;4.90;;;1.80;;
72117;SDS011;59992;47.490;8.736;2022-07-30T03:17:10;4.70;;;2.20;;
72117;SDS011;59992;47.490;8.736;2022-07-30T03:20:05;3.50;;;2.00;;
72117;SDS011;59992;47.490;8.736;2022-07-30T03:22:57;2.80;;;2.10;;
72117;SDS011;59992;47.490;8.736;2022-07-30T03:25:49;6.80;;;2.40;;
72117;SDS011;59992;47.490;8.736;2022-07-30T03:28:41;2.50;;;1.90;;
72117;SDS011;59992;47.490;8.736;2022-07-30T03:31:30;2.30;;;1.90;;
72117;SDS011;59992;47.490;8.736;2022-07-30T03:34:19;5.60;;;2.30;;
72117;SDS011;59992;47.490;8.736;2022-07-30T03:37:08;3.40;;;1.90;;
72117;SDS011;59992;47.490;8.736;2022-07-30T03:39:58;3.80;;;2.20;;
72117;SDS011;59992;47.490;8.736;2022-07-30T03:42:47;5.00;;;2.20;;
72117;SDS011;59992;47.490;8.736;2022-07-30T03:45:38;5.00;;;2.30;;
72117;SDS011;59992;47.490;8.736;2022-07-30T03:48:28;7.60;;;2.30;;
72117;SDS011;59992;47.490;8.736;2022-07-30T03:51:23;3.60;;;2.40;;
72117;SDS011;59992;47.490;8.736;2022-07-30T03:54:14;5.80;;;2.30;;
72117;SDS011;59992;47.490;8.736;2022-07-30T03:57:03;4.10;;;2.30;;
72117;SDS011;59992;47.490;8.736;2022-07-30T03:59:52;3.20;;;2.20;;
72117;SDS011;59992;47.490;8.736;2022-07-30T04:02:41;3.30;;;2.10;;
72117;SDS011;59992;47.490;8.736;2022-07-30T04:05:30;4.50;;;2.30;;
72117;SDS011;59992;47.490;8.736;2022-07-30T04:08:18;2.80;;;2.20;;
72117;SDS011;59992;47.490;8.736;2022-07-30T04:11:06;3.70;;;2.20;;
72117;SDS011;59992;47.490;8.736;2022-07-30T04:13:55;4.40;;;2.20;;
72117;SDS011;59992;47.490;8.736;2022-07-30T04:16:45;3.50;;;2.30;;
72117;SDS011;59992;47.490;8.736;2022-07-30T04:19:40;6.30;;;2.30;;
72117;SDS011;59992;47.490;8.736;2022-07-30T04:22:32;2.80;;;2.30;;
72117;SDS011;59992;47.490;8.736;2022-07-30T04:25:23;4.70;;;2.20;;
72117;SDS011;59992;47.490;8.736;2022-07-30T04:28:12;3.40;;;1.90;;
72117;SDS011;59992;47.490;8.736;2022-07-30T04:31:01;4.30;;;2.50;;
72117;SDS011;59992;47.490;8.736;2022-07-30T04:33:51;3.30;;;2.20;;
72117;SDS011;59992;47.490;8.736;2022-07-30T04:36:40;3.00;;;2.20;;
72117;SDS011;59992;47.490;8.736;2022-07-30T04:39:28;3.40;;;2.20;;
72117;SDS011;59992;47.490;8.736;2022-07-30T04:42:17;4.10;;;2.10;;
72117;SDS011;59992;47.490;8.736;2022-07-30T04:45:07;3.70;;;2.00;;
72117;SDS011;59992;47.490;8.736;2022-07-30T04:47:56;3.70;;;2.40;;
72117;SDS011;59992;47.490;8.736;2022-07-30T04:50:46;4.00;;;2.30;;
72117;SDS011;59992;47.490;8.736;2022-07-30T04:53:37;3.40;;;2.60;;
72117;SDS011;59992;47.490;8.736;2022-07-30T04:56:29;2.80;;;2.20;;
72117;SDS011;59992;47.490;8.736;2022-07-30T04:59:20;4.00;;;2.30;;
72117;SDS011;59992;47.490;8.736;2022-07-30T05:02:11;4.10;;;2.30;;
72117;SDS011;59992;47.490;8.736;2022-07-30T05:05:02;3.20;;;1.90;;
72117;SDS011;59992;47.490;8.736;2022-07-30T05:07:53;3.70;;;2.00;;
72117;SDS011;59992;47.490;8.736;2022-07-30T05:10:42;4.50;;;2.20;;
72117;SDS011;59992;47.490;8.736;2022-07-30T05:13:31;5.00;;;2.10;;
72117;SDS011;59992;47.490;8.736;2022-07-30T05:16:19;5.70;;;1.90;;
72117;SDS011;59992;47.490;8.736;2022-07-30T05:19:08;2.30;;;1.60;;
72117;SDS011;59992;47.490;8.736;2022-07-30T05:21:57;2.20;;;1.70;;
72117;SDS011;59992;47.490;8.736;2022-07-30T05:24:46;7.70;;;1.80;;
72117;SDS011;59992;47.490;8.736;2022-07-30T05:27:34;3.40;;;1.50;;
72117;SDS011;59992;47.490;8.736;2022-07-30T05:30:23;5.00;;;1.60;;
72117;SDS011;59992;47.490;8.736;2022-07-30T05:33:11;5.20;;;1.40;;
72117;SDS011;59992;47.490;8.736;2022-07-30T05:36:00;3.70;;;1.70;;
72117;SDS011;59992;47.490;8.736;2022-07-30T05:38:48;2.00;;;1.50;;
72117;SDS011;59992;47.490;8.736;2022-07-30T05:41:37;2.80;;;1.70;;
72117;SDS011;59992;47.490;8.736;2022-07-30T05:44:25;2.40;;;1.50;;
72117;SDS011;59992;47.490;8.736;2022-07-30T05:47:14;3.70;;;1.60;;
72117;SDS011;59992;47.490;8.736;2022-07-30T05:50:07;1.60;;;1.20;;
72117;SDS011;59992;47.490;8.736;2022-07-30T05:52:56;2.50;;;1.50;;
72117;SDS011;59992;47.490;8.736;2022-07-30T05:55:45;3.00;;;1.40;;
72117;SDS011;59992;47.490;8.736;2022-07-30T05:58:34;2.00;;;1.50;;
72117;SDS011;59992;47.490;8.736;2022-07-30T06:01:23;3.40;;;1.40;;
72117;SDS011;59992;47.490;8.736;2022-07-30T06:04:12;3.00;;;1.50;;
72117;SDS011;59992;47.490;8.736;2022-07-30T06:07:01;4.10;;;1.60;;
72117;SDS011;59992;47.490;8.736;2022-07-30T06:09:49;2.60;;;1.50;;
72117;SDS011;59992;47.490;8.736;2022-07-30T06:12:38;2.60;;;1.20;;
72117;SDS011;59992;47.490;8.736;2022-07-30T06:15:29;2.40;;;1.40;;
72117;SDS011;59992;47.490;8.736;2022-07-30T06:18:18;1.90;;;1.30;;
72117;SDS011;59992;47.490;8.736;2022-07-30T06:21:06;3.50;;;1.30;;
72117;SDS011;59992;47.490;8.736;2022-07-30T06:23:55;4.20;;;1.40;;
72117;SDS011;59992;47.490;8.736;2022-07-30T06:26:44;3.00;;;1.60;;
72117;SDS011;59992;47.490;8.736;2022-07-30T06:29:32;2.80;;;1.20;;
72117;SDS011;59992;47.490;8.736;2022-07-30T06:32:21;3.40;;;1.40;;
72117;SDS011;59992;47.490;8.736;2022-07-30T06:35:09;4.20;;;1.60;;
72117;SDS011;59992;47.490;8.736;2022-07-30T06:37:58;3.20;;;1.30;;
72117;SDS011;59992;47.490;8.736;2022-07-30T06:40:46;2.40;;;1.40;;
72117;SDS011;59992;47.490;8.736;2022-07-30T06:43:36;2.50;;;1.50;;
72117;SDS011;59992;47.490;8.736;2022-07-30T06:46:25;5.10;;;1.70;;
72117;SDS011;59992;47.490;8.736;2022-07-30T06:49:14;2.50;;;1.50;;
72117;SDS011;59992;47.490;8.736;2022-07-30T06:52:03;2.80;;;1.40;;
72117;SDS011;59992;47.490;8.736;2022-07-30T06:54:52;2.40;;;1.70;;
72117;SDS011;59992;47.490;8.736;2022-07-30T06:57:40;3.20;;;1.80;;
72117;SDS011;59992;47.490;8.736;2022-07-30T07:00:28;3.90;;;1.80;;
72117;SDS011;59992;47.490;8.736;2022-07-30T07:03:17;3.50;;;1.60;;
72117;SDS011;59992;47.490;8.736;2022-07-30T07:06:06;2.10;;;1.60;;
72117;SDS011;59992;47.490;8.736;2022-07-30T07:08:55;2.10;;;1.60;;
72117;SDS011;59992;47.490;8.736;2022-07-30T07:11:43;3.90;;;1.80;;
72117;SDS011;59992;47.490;8.736;2022-07-30T07:14:32;3.60;;;2.00;;
72117;SDS011;59992;47.490;8.736;2022-07-30T07:17:20;2.70;;;1.80;;
72117;SDS011;59992;47.490;8.736;2022-07-30T07:20:11;3.10;;;1.70;;
72117;SDS011;59992;47.490;8.736;2022-07-30T07:23:00;3.20;;;1.90;;
72117;SDS011;59992;47.490;8.736;2022-07-30T07:25:48;4.10;;;1.80;;
72117;SDS011;59992;47.490;8.736;2022-07-30T07:28:37;2.80;;;1.80;;
72117;SDS011;59992;47.490;8.736;2022-07-30T07:31:26;5.20;;;2.10;;
72117;SDS011;59992;47.490;8.736;2022-07-30T07:34:15;3.00;;;2.00;;
72117;SDS011;59992;47.490;8.736;2022-07-30T07:37:04;3.90;;;1.80;;
72117;SDS011;59992;47.490;8.736;2022-07-30T07:39:52;4.30;;;1.80;;
72117;SDS011;59992;47.490;8.736;2022-07-30T07:42:40;4.00;;;1.70;;
72117;SDS011;59992;47.490;8.736;2022-07-30T07:45:30;4.40;;;1.70;;
72117;SDS011;59992;47.490;8.736;2022-07-30T07:48:19;4.60;;;1.80;;
72117;SDS011;59992;47.490;8.736;2022-07-30T07:51:07;4.20;;;1.80;;
72117;SDS011;59992;47.490;8.736;2022-07-30T07:53:56;3.10;;;1.80;;
72117;SDS011;59992;47.490;8.736;2022-07-30T07:56:45;4.10;;;1.90;;
72117;SDS011;59992;47.490;8.736;2022-07-30T07:59:34;3.10;;;1.60;;
72117;SDS011;59992;47.490;8.736;2022-07-30T08:02:23;3.00;;;1.90;;
72117;SDS011;59992;47.490;8.736;2022-07-30T08:05:12;3.50;;;1.90;;
72117;SDS011;59992;47.490;8.736;2022-07-30T08:08:01;5.10;;;1.60;;
72117;SDS011;59992;47.490;8.736;2022-07-30T08:10:50;5.10;;;1.90;;
72117;SDS011;59992;47.490;8.736;2022-07-30T08:13:39;3.80;;;1.90;;
72117;SDS011;59992;47.490;8.736;2022-07-30T08:16:28;3.40;;;1.60;;
72117;SDS011;59992;47.490;8.736;2022-07-30T08:19:17;4.40;;;1.90;;
72117;SDS011;59992;47.490;8.736;2022-07-30T08:22:05;4.40;;;2.00;;
72117;SDS011;59992;47.490;8.736;2022-07-30T08:24:54;3.00;;;2.00;;
72117;SDS011;59992;47.490;8.736;2022-07-30T08:27:43;5.60;;;1.70;;
72117;SDS011;59992;47.490;8.736;2022-07-30T08:30:32;4.30;;;1.90;;
72117;SDS011;59992;47.490;8.736;2022-07-30T08:33:21;5.80;;;2.10;;
72117;SDS011;59992;47.490;8.736;2022-07-30T08:36:10;3.70;;;2.00;;
72117;SDS011;59992;47.490;8.736;2022-07-30T08:38:58;3.30;;;1.80;;
72117;SDS011;59992;47.490;8.736;2022-07-30T08:41:47;6.10;;;2.10;;
72117;SDS011;59992;47.490;8.736;2022-07-30T08:44:36;7.50;;;2.30;;
72117;SDS011;59992;47.490;8.736;2022-07-30T08:47:29;3.70;;;2.10;;
72117;SDS011;59992;47.490;8.736;2022-07-30T08:50:19;4.70;;;2.20;;
72117;SDS011;59992;47.490;8.736;2022-07-30T08:53:08;4.30;;;2.00;;
72117;SDS011;59992;47.490;8.736;2022-07-30T08:55:57;4.60;;;2.00;;
72117;SDS011;59992;47.490;8.736;2022-07-30T08:58:45;5.10;;;2.40;;
72117;SDS011;59992;47.490;8.736;2022-07-30T09:01:34;5.40;;;2.30;;
72117;SDS011;59992;47.490;8.736;2022-07-30T09:04:23;4.90;;;2.20;;
72117;SDS011;59992;47.490;8.736;2022-07-30T09:07:12;5.10;;;2.40;;
72117;SDS011;59992;47.490;8.736;2022-07-30T09:10:00;3.00;;;2.00;;
72117;SDS011;59992;47.490;8.736;2022-07-30T09:12:49;8.10;;;2.20;;
72117;SDS011;59992;47.490;8.736;2022-07-30T09:15:38;3.40;;;2.10;;
72117;SDS011;59992;47.490;8.736;2022-07-30T09:18:30;3.40;;;2.10;;
72117;SDS011;59992;47.490;8.736;2022-07-30T09:21:20;4.40;;;2.20;;
72117;SDS011;59992;47.490;8.736;2022-07-30T09:24:11;4.10;;;2.20;;
72117;SDS011;59992;47.490;8.736;2022-07-30T09:27:00;4.90;;;2.10;;
72117;SDS011;59992;47.490;8.736;2022-07-30T09:29:56;2.90;;;2.10;;
72117;SDS011;59992;47.490;8.736;2022-07-30T09:32:49;3.30;;;1.90;;
72117;SDS011;59992;47.490;8.736;2022-07-30T09:35:39;2.90;;;1.90;;
72117;SDS011;59992;47.490;8.736;2022-07-30T09:38:28;2.60;;;2.00;;
72117;SDS011;59992;47.490;8.736;2022-07-30T09:41:31;5.00;;;2.10;;
72117;SDS011;59992;47.490;8.736;2022-07-30T09:44:23;3.60;;;2.00;;
72117;SDS011;59992;47.490;8.736;2022-07-30T09:47:29;4.30;;;2.10;;
72117;SDS011;59992;47.490;8.736;2022-07-30T09:50:21;3.70;;;2.00;;
72117;SDS011;59992;47.490;8.736;2022-07-30T09:53:10;3.90;;;1.90;;
72117;SDS011;59992;47.490;8.736;2022-07-30T09:55:58;3.60;;;2.30;;
72117;SDS011;59992;47.490;8.736;2022-07-30T09:58:47;5.00;;;2.00;;
72117;SDS011;59992;47.490;8.736;2022-07-30T10:01:50;3.30;;;2.00;;
72117;SDS011;59992;47.490;8.736;2022-07-30T10:04:45;3.40;;;1.70;;
72117;SDS011;59992;47.490;8.736;2022-07-30T10:07:33;3.40;;;1.70;;
72117;SDS011;59992;47.490;8.736;2022-07-30T10:10:23;3.60;;;1.80;;
72117;SDS011;59992;47.490;8.736;2022-07-30T10:13:14;3.20;;;1.90;;
72117;SDS011;59992;47.490;8.736;2022-07-30T10:16:05;2.60;;;1.70;;
72117;SDS011;59992;47.490;8.736;2022-07-30T10:18:54;4.00;;;1.90;;
72117;SDS011;59992;47.490;8.736;2022-07-30T10:21:47;4.20;;;1.80;;
72117;SDS011;59992;47.490;8.736;2022-07-30T10:24:36;2.40;;;1.70;;
72117;SDS011;59992;47.490;8.736;2022-07-30T10:27:26;2.90;;;1.90;;
72117;SDS011;59992;47.490;8.736;2022-07-30T10:30:15;2.20;;;1.60;;
72117;SDS011;59992;47.490;8.736;2022-07-30T10:33:04;3.50;;;1.70;;
72117;SDS011;59992;47.490;8.736;2022-07-30T10:35:55;4.90;;;1.90;;
72117;SDS011;59992;47.490;8.736;2022-07-30T10:38:44;4.90;;;2.20;;
72117;SDS011;59992;47.490;8.736;2022-07-30T10:41:36;4.30;;;1.90;;
72117;SDS011;59992;47.490;8.736;2022-07-30T10:48:02;5.00;;;2.20;;
72117;SDS011;59992;47.490;8.736;2022-07-30T10:50:52;3.20;;;2.00;;
72117;SDS011;59992;47.490;8.736;2022-07-30T10:53:43;3.70;;;2.00;;
72117;SDS011;59992;47.490;8.736;2022-07-30T10:56:33;4.20;;;2.00;;
72117;SDS011;59992;47.490;8.736;2022-07-30T10:59:22;2.70;;;2.00;;
72117;SDS011;59992;47.490;8.736;2022-07-30T11:02:11;3.60;;;2.00;;
72117;SDS011;59992;47.490;8.736;2022-07-30T11:15:04;4.60;;;1.90;;
72117;SDS011;59992;47.490;8.736;2022-07-30T11:18:03;3.80;;;1.90;;
72117;SDS011;59992;47.490;8.736;2022-07-30T11:21:14;2.10;;;1.80;;
72117;SDS011;59992;47.490;8.736;2022-07-30T11:27:38;2.60;;;1.80;;
72117;SDS011;59992;47.490;8.736;2022-07-30T11:30:36;3.50;;;2.00;;
72117;SDS011;59992;47.490;8.736;2022-07-30T11:33:25;3.90;;;2.10;;
72117;SDS011;59992;47.490;8.736;2022-07-30T11:36:13;3.90;;;1.70;;
72117;SDS011;59992;47.490;8.736;2022-07-30T11:39:01;2.50;;;2.10;;
72117;SDS011;59992;47.490;8.736;2022-07-30T11:45:22;5.60;;;1.70;;
72117;SDS011;59992;47.490;8.736;2022-07-30T11:48:18;3.80;;;2.00;;
72117;SDS011;59992;47.490;8.736;2022-07-30T11:51:07;4.30;;;2.00;;
72117;SDS011;59992;47.490;8.736;2022-07-30T11:54:02;3.00;;;1.90;;
72117;SDS011;59992;47.490;8.736;2022-07-30T11:56:59;2.90;;;1.60;;
72117;SDS011;59992;47.490;8.736;2022-07-30T11:59:57;3.20;;;1.60;;
72117;SDS011;59992;47.490;8.736;2022-07-30T12:02:46;2.40;;;1.50;;
72117;SDS011;59992;47.490;8.736;2022-07-30T12:05:35;2.40;;;1.60;;
72117;SDS011;59992;47.490;8.736;2022-07-30T12:08:24;3.20;;;1.60;;
72117;SDS011;59992;47.490;8.736;2022-07-30T12:11:13;3.60;;;1.90;;
72117;SDS011;59992;47.490;8.736;2022-07-30T12:14:02;3.60;;;1.90;;
72117;SDS011;59992;47.490;8.736;2022-07-30T12:16:52;2.20;;;1.70;;
72117;SDS011;59992;47.490;8.736;2022-07-30T12:19:44;4.40;;;1.80;;
72117;SDS011;59992;47.490;8.736;2022-07-30T12:22:34;2.80;;;2.00;;
72117;SDS011;59992;47.490;8.736;2022-07-30T12:25:22;2.50;;;1.80;;
72117;SDS011;59992;47.490;8.736;2022-07-30T12:28:17;3.70;;;2.00;;
72117;SDS011;59992;47.490;8.736;2022-07-30T12:31:08;2.60;;;1.70;;
72117;SDS011;59992;47.490;8.736;2022-07-30T12:34:01;5.00;;;1.90;;
72117;SDS011;59992;47.490;8.736;2022-07-30T12:36:50;5.20;;;2.50;;
72117;SDS011;59992;47.490;8.736;2022-07-30T12:39:39;2.30;;;1.60;;
72117;SDS011;59992;47.490;8.736;2022-07-30T12:42:28;3.00;;;1.80;;
72117;SDS011;59992;47.490;8.736;2022-07-30T12:45:26;3.70;;;1.80;;
72117;SDS011;59992;47.490;8.736;2022-07-30T12:48:17;2.60;;;1.90;;
72117;SDS011;59992;47.490;8.736;2022-07-30T12:51:08;3.40;;;1.80;;
72117;SDS011;59992;47.490;8.736;2022-07-30T12:53:57;2.00;;;1.50;;
72117;SDS011;59992;47.490;8.736;2022-07-30T12:57:08;2.80;;;1.80;;
72117;SDS011;59992;47.490;8.736;2022-07-30T13:00:02;3.20;;;1.30;;
72117;SDS011;59992;47.490;8.736;2022-07-30T13:02:55;2.80;;;1.50;;
72117;SDS011;59992;47.490;8.736;2022-07-30T13:05:46;3.40;;;1.50;;
72117;SDS011;59992;47.490;8.736;2022-07-30T13:08:50;2.00;;;1.10;;
72117;SDS011;59992;47.490;8.736;2022-07-30T13:11:42;2.20;;;1.40;;
72117;SDS011;59992;47.490;8.736;2022-07-30T13:14:32;2.40;;;1.10;;
72117;SDS011;59992;47.490;8.736;2022-07-30T13:17:23;3.20;;;1.30;;
72117;SDS011;59992;47.490;8.736;2022-07-30T13:20:13;2.30;;;1.40;;
72117;SDS011;59992;47.490;8.736;2022-07-30T13:23:05;2.50;;;1.40;;
72117;SDS011;59992;47.490;8.736;2022-07-30T13:25:56;2.30;;;1.40;;
72117;SDS011;59992;47.490;8.736;2022-07-30T13:28:45;3.00;;;1.20;;
72117;SDS011;59992;47.490;8.736;2022-07-30T13:31:35;2.70;;;1.30;;
72117;SDS011;59992;47.490;8.736;2022-07-30T13:34:25;2.40;;;1.40;;
72117;SDS011;59992;47.490;8.736;2022-07-30T13:37:16;1.90;;;1.40;;
72117;SDS011;59992;47.490;8.736;2022-07-30T13:40:07;1.70;;;1.30;;
72117;SDS011;59992;47.490;8.736;2022-07-30T13:43:00;2.00;;;1.30;;
72117;SDS011;59992;47.490;8.736;2022-07-30T13:45:51;2.40;;;1.40;;
72117;SDS011;59992;47.490;8.736;2022-07-30T13:48:41;2.70;;;1.50;;
72117;SDS011;59992;47.490;8.736;2022-07-30T13:51:30;4.90;;;1.60;;
72117;SDS011;59992;47.490;8.736;2022-07-30T13:54:18;2.80;;;1.40;;
72117;SDS011;59992;47.490;8.736;2022-07-30T13:57:08;3.10;;;1.40;;
72117;SDS011;59992;47.490;8.736;2022-07-30T13:59:56;4.20;;;1.40;;
72117;SDS011;59992;47.490;8.736;2022-07-30T14:02:45;2.20;;;1.20;;
72117;SDS011;59992;47.490;8.736;2022-07-30T14:05:34;2.50;;;1.40;;
72117;SDS011;59992;47.490;8.736;2022-07-30T14:08:23;3.80;;;1.40;;
72117;SDS011;59992;47.490;8.736;2022-07-30T14:11:11;2.10;;;1.10;;
72117;SDS011;59992;47.490;8.736;2022-07-30T14:14:00;5.00;;;1.40;;
72117;SDS011;59992;47.490;8.736;2022-07-30T14:16:49;3.00;;;1.40;;
72117;SDS011;59992;47.490;8.736;2022-07-30T14:19:41;3.70;;;1.70;;
72117;SDS011;59992;47.490;8.736;2022-07-30T14:22:29;3.50;;;1.40;;
72117;SDS011;59992;47.490;8.736;2022-07-30T14:25:19;2.60;;;1.20;;
72117;SDS011;59992;47.490;8.736;2022-07-30T14:28:09;2.70;;;1.50;;
72117;SDS011;59992;47.490;8.736;2022-07-30T14:30:57;2.80;;;1.40;;
72117;SDS011;59992;47.490;8.736;2022-07-30T14:33:45;2.30;;;1.20;;
72117;SDS011;59992;47.490;8.736;2022-07-30T14:36:34;3.30;;;1.20;;
72117;SDS011;59992;47.490;8.736;2022-07-30T14:39:24;2.10;;;1.30;;
72117;SDS011;59992;47.490;8.736;2022-07-30T14:42:12;2.20;;;1.30;;
72117;SDS011;59992;47.490;8.736;2022-07-30T14:45:02;2.70;;;1.20;;
72117;SDS011;59992;47.490;8.736;2022-07-30T14:47:51;2.90;;;1.30;;
72117;SDS011;59992;47.490;8.736;2022-07-30T14:50:39;4.50;;;1.40;;
72117;SDS011;59992;47.490;8.736;2022-07-30T14:53:28;2.20;;;1.30;;
72117;SDS011;59992;47.490;8.736;2022-07-30T14:56:16;3.00;;;1.30;;
72117;SDS011;59992;47.490;8.736;2022-07-30T14:59:05;2.70;;;1.30;;
72117;SDS011;59992;47.490;8.736;2022-07-30T15:01:54;1.50;;;1.30;;
72117;SDS011;59992;47.490;8.736;2022-07-30T15:04:43;2.30;;;1.10;;
72117;SDS011;59992;47.490;8.736;2022-07-30T15:07:32;2.10;;;1.20;;
72117;SDS011;59992;47.490;8.736;2022-07-30T15:10:21;3.10;;;1.80;;
72117;SDS011;59992;47.490;8.736;2022-07-30T15:13:10;3.40;;;1.50;;
72117;SDS011;59992;47.490;8.736;2022-07-30T15:15:59;2.30;;;1.40;;
72117;SDS011;59992;47.490;8.736;2022-07-30T15:18:47;2.50;;;1.20;;
72117;SDS011;59992;47.490;8.736;2022-07-30T15:21:36;3.40;;;1.30;;
72117;SDS011;59992;47.490;8.736;2022-07-30T15:24:24;2.50;;;1.20;;
72117;SDS011;59992;47.490;8.736;2022-07-30T15:27:13;2.20;;;1.10;;
72117;SDS011;59992;47.490;8.736;2022-07-30T15:30:03;2.40;;;1.30;;
72117;SDS011;59992;47.490;8.736;2022-07-30T15:32:53;2.00;;;1.20;;
72117;SDS011;59992;47.490;8.736;2022-07-30T15:35:42;3.90;;;1.30;;
72117;SDS011;59992;47.490;8.736;2022-07-30T15:38:32;2.30;;;1.40;;
72117;SDS011;59992;47.490;8.736;2022-07-30T15:41:21;2.10;;;1.30;;
72117;SDS011;59992;47.490;8.736;2022-07-30T15:44:13;2.00;;;1.40;;
72117;SDS011;59992;47.490;8.736;2022-07-30T15:47:01;2.50;;;1.50;;
72117;SDS011;59992;47.490;8.736;2022-07-30T15:49:50;2.20;;;1.40;;
72117;SDS011;59992;47.490;8.736;2022-07-30T15:52:39;4.20;;;1.40;;
72117;SDS011;59992;47.490;8.736;2022-07-30T15:55:27;2.80;;;1.40;;
72117;SDS011;59992;47.490;8.736;2022-07-30T15:58:15;2.30;;;1.40;;
72117;SDS011;59992;47.490;8.736;2022-07-30T16:01:04;3.90;;;1.60;;
72117;SDS011;59992;47.490;8.736;2022-07-30T16:03:52;2.30;;;1.30;;
72117;SDS011;59992;47.490;8.736;2022-07-30T16:06:40;2.60;;;1.50;;
72117;SDS011;59992;47.490;8.736;2022-07-30T16:09:30;3.20;;;1.30;;
72117;SDS011;59992;47.490;8.736;2022-07-30T16:12:18;2.30;;;1.30;;
72117;SDS011;59992;47.490;8.736;2022-07-30T16:15:08;3.00;;;1.30;;
72117;SDS011;59992;47.490;8.736;2022-07-30T16:17:58;1.90;;;1.20;;
72117;SDS011;59992;47.490;8.736;2022-07-30T16:20:47;4.00;;;1.50;;
72117;SDS011;59992;47.490;8.736;2022-07-30T16:23:35;2.20;;;1.30;;
72117;SDS011;59992;47.490;8.736;2022-07-30T16:26:25;1.80;;;1.40;;
72117;SDS011;59992;47.490;8.736;2022-07-30T16:29:14;2.90;;;1.30;;
72117;SDS011;59992;47.490;8.736;2022-07-30T16:32:04;3.10;;;1.50;;
72117;SDS011;59992;47.490;8.736;2022-07-30T16:34:53;1.90;;;1.40;;
72117;SDS011;59992;47.490;8.736;2022-07-30T16:37:41;3.20;;;1.40;;
72117;SDS011;59992;47.490;8.736;2022-07-30T16:40:30;2.40;;;1.40;;
72117;SDS011;59992;47.490;8.736;2022-07-30T16:43:19;2.00;;;1.20;;
72117;SDS011;59992;47.490;8.736;2022-07-30T16:46:07;2.60;;;1.20;;
72117;SDS011;59992;47.490;8.736;2022-07-30T16:48:57;1.50;;;1.00;;
72117;SDS011;59992;47.490;8.736;2022-07-30T16:51:45;3.20;;;1.80;;
72117;SDS011;59992;47.490;8.736;2022-07-30T16:54:34;3.20;;;1.70;;
72117;SDS011;59992;47.490;8.736;2022-07-30T16:57:23;7.00;;;2.10;;
72117;SDS011;59992;47.490;8.736;2022-07-30T17:00:12;2.50;;;1.50;;
72117;SDS011;59992;47.490;8.736;2022-07-30T17:03:01;2.90;;;1.50;;
72117;SDS011;59992;47.490;8.736;2022-07-30T17:05:50;3.90;;;1.70;;
72117;SDS011;59992;47.490;8.736;2022-07-30T17:08:38;3.10;;;1.60;;
72117;SDS011;59992;47.490;8.736;2022-07-30T17:11:26;2.70;;;1.40;;
72117;SDS011;59992;47.490;8.736;2022-07-30T17:14:15;3.00;;;1.60;;
72117;SDS011;59992;47.490;8.736;2022-07-30T17:17:03;4.60;;;1.60;;
72117;SDS011;59992;47.490;8.736;2022-07-30T17:19:52;3.00;;;1.60;;
72117;SDS011;59992;47.490;8.736;2022-07-30T17:22:41;3.10;;;1.80;;
72117;SDS011;59992;47.490;8.736;2022-07-30T17:25:29;2.00;;;1.30;;